Holesov, Czech Republic
Current Conditions -  °F | °C
As of 8:30 PM on Wednesday 26 Nov 2014 (Local Time) from LKMT Reporting Station
Haze Haze  
Wind Chill: 36°   Ceiling: 4900
Heat Index: 36°   Visibility: 3mi
Dew Point: 34°   Wind: 3mph
Humidity: 93%   Direction: 310°NW
Pressure: 30.18"   Gusts: NA
Location:  49.34°N, 17.58°E
Report Text: LKMT 261830Z 31003KT 5000 BR OVC049 02/01 Q1022 NOSIG
Loading
Personal Weather Stations






























Interactive Weather Map New forecast layout! Learn more

10-Day Weather Forecast

Advertisements
Track Severe Weather on mobile